Ellerbe, North Carolina
Current Conditions -  °F | °C
As of 7:15 PM on Thursday 27 Nov 2014 (Local Time) from KRCZ Reporting Station
Clear Clear  
Wind Chill:   Ceiling: Unl
Heat Index:   Visibility: 10mi
Dew Point: -1°   Wind: 6mph
Humidity: 64%   Direction: 340°NNW
Pressure: 30.21"   Gusts: NA
Location:  35.07°N, 79.76°W
Report Text: KRCZ 280015Z AUTO 34005KT 10SM CLR 06/M01 A3021 RMK AO2 T00571006
Loading
Personal Weather Stations






























Interactive Weather Map New forecast layout! Learn more

10-Day Weather Forecast

Advertisements
Track Severe Weather on mobile